Crane, Washington
Current Conditions -  °F | °C
As of 8:35 AM on Thursday 29 Jan 2015 (Local Time) from KCLM Reporting Station
Overcast Overcast  
Wind Chill: 42°   Ceiling: 1000
Heat Index: 44°   Visibility: 10mi
Dew Point: 41°   Wind: 5mph
Humidity: 89%   Direction: 140°SE
Pressure: 30.37"   Gusts: NA
Location:  48.1359°N, 123.734°W
Report Text: KCLM 291635Z AUTO 14004KT 10SM OVC010 07/05 A3037 RMK AO2 CIG 007V011 T00670050 $
Loading
Personal Weather Stations






























Interactive Weather Map New forecast layout! Learn more

10-Day Weather Forecast

Advertisements
Track Severe Weather on mobile